Time,TemperatureF,DewpointF,PressureIn,WindDirection,WindDirectionDegrees,WindSpeedMPH,WindSpeedGustMPH,Humidity,HourlyPrecipIn,Conditions,Clouds,dailyrainin,SolarRadiationWatts/m^2,SoftwareType,DateUTC
2013-06-15 00:02:00,79.2,41.4,29.91,NW,321,1.0,1.0,26,0.00,,,0.00,0.0,meteohub,2013-06-15 07:02:00,
2013-06-15 00:07:00,78.4,40.6,29.91,NW,321,1.0,2.0,26,0.00,,,0.00,0.0,meteohub,2013-06-15 07:07:00,
2013-06-15 00:12:00,77.9,42.3,29.92,NNE,24,2.0,2.0,28,0.00,,,0.00,0.0,meteohub,2013-06-15 07:12:00,
2013-06-15 00:17:00,78.1,42.3,29.92,ENE,62,1.0,3.0,28,0.00,,,0.00,0.0,meteohub,2013-06-15 07:17:00,
2013-06-15 00:22:00,78.3,42.4,29.92,ENE,62,1.0,4.0,28,0.00,,,0.00,0.0,meteohub,2013-06-15 07:22:00,
2013-06-15 00:27:00,78.3,42.4,29.92,ENE,62,2.0,4.0,28,0.00,,,0.00,0.0,meteohub,2013-06-15 07:27:00,
2013-06-15 00:32:00,78.3,43.3,29.92,ENE,62,1.0,3.0,29,0.00,,,0.00,0.0,meteohub,2013-06-15 07:32:00,
2013-06-15 00:37:00,78.3,43.3,29.92,ENE,62,2.0,3.0,29,0.00,,,0.00,0.0,meteohub,2013-06-15 07:37:00,
2013-06-15 00:42:00,78.4,43.5,29.92,ENE,61,0.0,3.0,29,0.00,,,0.00,0.0,meteohub,2013-06-15 07:42:00,
2013-06-15 00:47:00,78.8,43.9,29.92,ENE,61,2.0,3.0,29,0.00,,,0.00,0.0,meteohub,2013-06-15 07:47:00,
2013-06-15 00:52:00,79.2,44.2,29.92,ENE,61,1.0,2.0,29,0.00,,,0.00,0.0,meteohub,2013-06-15 07:52:00,
2013-06-15 00:57:00,79.3,44.2,29.92,ENE,61,1.0,2.0,29,0.00,,,0.00,0.0,meteohub,2013-06-15 07:57:00,
2013-06-15 01:02:00,79.3,43.3,29.92,ENE,61,1.0,2.0,28,0.00,,,0.00,0.0,meteohub,2013-06-15 08:02:00,
2013-06-15 01:07:00,79.2,44.2,29.92,ENE,61,0.0,2.0,29,0.00,,,0.00,0.0,meteohub,2013-06-15 08:07:00,
2013-06-15 01:12:00,79.0,44.1,29.92,ENE,61,0.0,2.0,29,0.00,,,0.00,0.0,meteohub,2013-06-15 08:12:00,
2013-06-15 01:17:00,78.6,43.7,29.92,ENE,61,1.0,2.0,29,0.00,,,0.00,0.0,meteohub,2013-06-15 08:17:00,
2013-06-15 01:22:00,78.4,43.5,29.92,ENE,61,0.0,2.0,29,0.00,,,0.00,0.0,meteohub,2013-06-15 08:22:00,
2013-06-15 01:27:00,78.8,44.8,29.91,ENE,61,1.0,2.0,30,0.00,,,0.00,0.0,meteohub,2013-06-15 08:27:00,
2013-06-15 01:32:00,79.3,44.2,29.91,ENE,61,0.0,3.0,29,0.00,,,0.00,0.0,meteohub,2013-06-15 08:32:00,
2013-06-15 01:37:00,79.2,44.2,29.92,ENE,61,0.0,3.0,29,0.00,,,0.00,0.0,meteohub,2013-06-15 08:37:00,
2013-06-15 01:42:00,78.8,43.9,29.91,ENE,61,0.0,3.0,29,0.00,,,0.00,0.0,meteohub,2013-06-15 08:42:00,
2013-06-15 01:47:00,78.3,43.3,29.91,ENE,61,0.0,1.0,29,0.00,,,0.00,0.0,meteohub,2013-06-15 08:47:00,
2013-06-15 01:52:00,77.7,43.9,29.91,ENE,61,0.0,1.0,30,0.00,,,0.00,0.0,meteohub,2013-06-15 08:52:00,
2013-06-15 01:57:00,77.2,43.3,29.91,ENE,61,1.0,1.0,30,0.00,,,0.00,0.0,meteohub,2013-06-15 08:57:00,
2013-06-15 02:02:00,76.5,43.5,29.91,ENE,61,1.0,1.0,31,0.00,,,0.00,0.0,meteohub,2013-06-15 09:02:00,
2013-06-15 02:07:00,76.1,44.1,29.91,ENE,61,0.0,2.0,32,0.00,,,0.00,0.0,meteohub,2013-06-15 09:07:00,
2013-06-15 02:12:00,75.9,43.9,29.91,ENE,61,1.0,2.0,32,0.00,,,0.00,0.0,meteohub,2013-06-15 09:12:00,
2013-06-15 02:17:00,75.7,43.7,29.91,ENE,61,1.0,2.0,32,0.00,,,0.00,0.0,meteohub,2013-06-15 09:17:00,
2013-06-15 02:22:00,75.4,44.2,29.91,ENE,61,0.0,2.0,33,0.00,,,0.00,0.0,meteohub,2013-06-15 09:22:00,
2013-06-15 02:27:00,74.8,43.0,29.91,ENE,61,1.0,2.0,32,0.00,,,0.00,0.0,meteohub,2013-06-15 09:27:00,
2013-06-15 02:32:00,74.5,44.2,29.91,ENE,61,2.0,2.0,34,0.00,,,0.00,0.0,meteohub,2013-06-15 09:32:00,
2013-06-15 02:37:00,74.1,43.2,29.91,ENE,61,1.0,2.0,33,0.00,,,0.00,0.0,meteohub,2013-06-15 09:37:00,
2013-06-15 02:42:00,74.1,43.9,29.92,ENE,61,0.0,2.0,34,0.00,,,0.00,0.0,meteohub,2013-06-15 09:42:00,
2013-06-15 02:47:00,74.5,44.2,29.92,ENE,61,1.0,2.0,34,0.00,,,0.00,0.0,meteohub,2013-06-15 09:47:00,
2013-06-15 02:52:00,74.5,44.2,29.92,ENE,61,2.0,2.0,34,0.00,,,0.00,0.0,meteohub,2013-06-15 09:52:00,
2013-06-15 02:57:00,75.0,43.9,29.92,ENE,61,1.0,2.0,33,0.00,,,0.00,0.0,meteohub,2013-06-15 09:57:00,
2013-06-15 03:02:00,75.4,44.2,29.92,ENE,61,1.0,2.0,33,0.00,,,0.00,0.0,meteohub,2013-06-15 10:02:00,
2013-06-15 03:07:00,75.6,44.4,29.92,ENE,61,1.0,2.0,33,0.00,,,0.00,0.0,meteohub,2013-06-15 10:07:00,
2013-06-15 03:12:00,75.7,44.6,29.92,ENE,61,0.0,2.0,33,0.00,,,0.00,0.0,meteohub,2013-06-15 10:12:00,
2013-06-15 03:17:00,75.9,44.8,29.93,ENE,61,2.0,2.0,33,0.00,,,0.00,0.0,meteohub,2013-06-15 10:17:00,
2013-06-15 03:22:00,76.1,45.0,29.93,ENE,61,1.0,2.0,33,0.00,,,0.00,0.0,meteohub,2013-06-15 10:22:00,
2013-06-15 03:27:00,76.1,45.0,29.93,ENE,61,1.0,2.0,33,0.00,,,0.00,0.0,meteohub,2013-06-15 10:27:00,
2013-06-15 03:32:00,75.9,45.5,29.93,ENE,61,0.0,2.0,34,0.00,,,0.00,0.0,meteohub,2013-06-15 10:32:00,
2013-06-15 03:37:00,75.7,45.3,29.94,ENE,61,1.0,2.0,34,0.00,,,0.00,0.0,meteohub,2013-06-15 10:37:00,
2013-06-15 03:42:00,75.4,45.9,29.94,ENE,61,1.0,1.0,35,0.00,,,0.00,0.0,meteohub,2013-06-15 10:42:00,
2013-06-15 03:47:00,75.0,46.2,29.94,ENE,61,0.0,2.0,36,0.00,,,0.00,0.0,meteohub,2013-06-15 10:47:00,
2013-06-15 03:52:00,75.2,48.6,29.94,ENE,61,1.0,2.0,39,0.00,,,0.00,0.0,meteohub,2013-06-15 10:52:00,
2013-06-15 03:57:00,75.7,48.4,29.94,ENE,61,1.0,2.0,38,0.00,,,0.00,0.0,meteohub,2013-06-15 10:57:00,
2013-06-15 04:02:00,76.5,47.5,29.94,ENE,61,0.0,2.0,36,0.00,,,0.00,0.0,meteohub,2013-06-15 11:02:00,
2013-06-15 04:07:00,76.6,48.4,29.94,ENE,61,0.0,2.0,37,0.00,,,0.00,0.0,meteohub,2013-06-15 11:07:00,
2013-06-15 04:12:00,76.8,47.8,29.94,ENE,61,0.0,2.0,36,0.00,,,0.00,0.0,meteohub,2013-06-15 11:12:00,
2013-06-15 04:17:00,76.6,48.4,29.94,ENE,61,1.0,2.0,37,0.00,,,0.00,0.0,meteohub,2013-06-15 11:17:00,
2013-06-15 04:22:00,76.3,48.7,29.94,ENE,61,2.0,3.0,38,0.00,,,0.00,0.0,meteohub,2013-06-15 11:22:00,
2013-06-15 04:27:00,76.3,48.7,29.94,ENE,61,1.0,3.0,38,0.00,,,0.00,0.0,meteohub,2013-06-15 11:27:00,
2013-06-15 04:32:00,76.5,48.9,29.95,ENE,61,1.0,3.0,38,0.00,,,0.00,0.0,meteohub,2013-06-15 11:32:00,
2013-06-15 04:37:00,76.6,49.1,29.95,ENE,63,3.0,3.0,38,0.00,,,0.00,0.0,meteohub,2013-06-15 11:37:00,
2013-06-15 04:42:00,77.2,49.6,29.95,NE,55,1.0,4.0,38,0.00,,,0.00,0.0,meteohub,2013-06-15 11:42:00,
2013-06-15 04:47:00,77.4,49.1,29.95,NE,55,0.0,4.0,37,0.00,,,0.00,0.0,meteohub,2013-06-15 11:47:00,
2013-06-15 04:52:00,77.4,49.8,29.96,NE,55,0.0,4.0,38,0.00,,,0.00,0.0,meteohub,2013-06-15 11:52:00,
2013-06-15 04:57:00,77.2,48.9,29.96,NE,55,1.0,2.0,37,0.00,,,0.00,0.0,meteohub,2013-06-15 11:57:00,
2013-06-15 05:02:00,76.6,49.1,29.96,NE,55,0.0,2.0,38,0.00,,,0.00,0.0,meteohub,2013-06-15 12:02:00,
2013-06-15 05:07:00,76.1,48.6,29.96,NE,55,1.0,2.0,38,0.00,,,0.00,0.0,meteohub,2013-06-15 12:07:00,
2013-06-15 05:11:00,75.6,49.5,29.96,NE,55,1.0,2.0,40,0.00,,,0.00,0.0,meteohub,2013-06-15 12:11:00,
2013-06-15 05:17:00,75.0,48.4,29.96,NE,55,0.0,2.0,39,0.00,,,0.00,0.0,meteohub,2013-06-15 12:17:00,
2013-06-15 05:22:00,74.8,48.9,29.96,NE,55,1.0,2.0,40,0.00,,,0.00,7.0,meteohub,2013-06-15 12:22:00,
2013-06-15 05:26:00,74.8,49.6,29.96,NE,55,0.0,1.0,41,0.00,,,0.00,12.0,meteohub,2013-06-15 12:26:00,
2013-06-15 05:32:00,74.8,49.6,29.97,NE,55,1.0,1.0,41,0.00,,,0.00,16.0,meteohub,2013-06-15 12:32:00,
2013-06-15 05:37:00,74.8,50.2,29.97,NE,55,0.0,2.0,42,0.00,,,0.00,21.0,meteohub,2013-06-15 12:37:00,
2013-06-15 05:42:00,74.8,49.6,29.97,NE,55,0.0,2.0,41,0.00,,,0.00,26.0,meteohub,2013-06-15 12:42:00,
2013-06-15 05:47:00,74.8,49.6,29.97,NE,55,0.0,2.0,41,0.00,,,0.00,33.0,meteohub,2013-06-15 12:47:00,
2013-06-15 05:52:00,75.0,50.4,29.97,NE,55,0.0,1.0,42,0.00,,,0.00,42.0,meteohub,2013-06-15 12:52:00,
2013-06-15 05:57:00,75.6,50.2,29.97,NE,55,1.0,1.0,41,0.00,,,0.00,53.0,meteohub,2013-06-15 12:57:00,
2013-06-15 06:02:00,75.9,50.5,29.98,NE,55,1.0,1.0,41,0.00,,,0.00,65.0,meteohub,2013-06-15 13:02:00,
2013-06-15 06:07:00,76.6,51.3,29.98,NE,55,0.0,1.0,41,0.00,,,0.00,81.0,meteohub,2013-06-15 13:07:00,
2013-06-15 06:12:00,77.5,51.3,29.98,NE,55,0.0,1.0,40,0.00,,,0.00,100.0,meteohub,2013-06-15 13:12:00,
2013-06-15 06:18:00,78.4,51.4,29.98,NE,55,0.0,1.0,39,0.00,,,0.00,121.0,meteohub,2013-06-15 13:18:00,
2013-06-15 06:23:00,79.5,51.6,29.98,NE,55,1.0,1.0,38,0.00,,,0.00,134.0,meteohub,2013-06-15 13:23:00,
2013-06-15 06:28:00,81.0,52.2,29.98,NE,55,0.0,2.0,37,0.00,,,0.00,160.0,meteohub,2013-06-15 13:28:00,
2013-06-15 06:33:00,82.0,52.5,29.99,NE,55,0.0,2.0,36,0.00,,,0.00,171.0,meteohub,2013-06-15 13:33:00,
2013-06-15 06:38:00,83.3,52.9,29.99,NE,55,1.0,2.0,35,0.00,,,0.00,183.0,meteohub,2013-06-15 13:38:00,
2013-06-15 06:43:00,84.4,52.2,29.99,NE,55,1.0,2.0,33,0.00,,,0.00,195.0,meteohub,2013-06-15 13:43:00,
2013-06-15 06:48:00,85.3,52.2,29.99,ENE,61,0.0,2.0,32,0.00,,,0.00,209.0,meteohub,2013-06-15 13:48:00,
2013-06-15 06:53:00,86.0,52.7,29.99,ENE,61,0.0,2.0,32,0.00,,,0.00,225.0,meteohub,2013-06-15 13:53:00,
2013-06-15 06:58:00,87.1,52.7,29.99,ENE,61,0.0,2.0,31,0.00,,,0.00,241.0,meteohub,2013-06-15 13:58:00,
2013-06-15 07:03:00,87.4,52.2,29.99,ESE,117,2.0,2.0,30,0.00,,,0.00,257.0,meteohub,2013-06-15 14:03:00,
2013-06-15 07:08:00,87.4,52.2,29.99,SSW,193,0.0,3.0,30,0.00,,,0.00,271.0,meteohub,2013-06-15 14:08:00,
2013-06-15 07:13:00,87.4,52.2,29.99,South,190,0.0,3.0,30,0.00,,,0.00,283.0,meteohub,2013-06-15 14:13:00,
2013-06-15 07:18:00,88.0,52.7,29.99,South,184,2.0,3.0,30,0.00,,,0.00,297.0,meteohub,2013-06-15 14:18:00,
2013-06-15 07:23:00,88.2,52.0,29.99,South,184,1.0,2.0,29,0.00,,,0.00,313.0,meteohub,2013-06-15 14:23:00,
2013-06-15 07:28:00,88.2,52.9,29.99,SW,231,3.0,3.0,30,0.00,,,0.00,330.0,meteohub,2013-06-15 14:28:00,
2013-06-15 07:34:00,88.0,52.7,30.00,SW,233,3.0,3.0,30,0.00,,,0.00,352.0,meteohub,2013-06-15 14:34:00,
2013-06-15 07:39:00,88.0,52.7,30.00,SW,221,2.0,3.0,30,0.00,,,0.00,366.0,meteohub,2013-06-15 14:39:00,
2013-06-15 07:44:00,88.2,52.9,30.00,SW,221,2.0,3.0,30,0.00,,,0.00,385.0,meteohub,2013-06-15 14:44:00,
2013-06-15 07:49:00,88.0,52.7,30.00,WSW,246,1.0,3.0,30,0.00,,,0.00,401.0,meteohub,2013-06-15 14:49:00,
2013-06-15 07:54:00,88.2,52.9,30.00,West,264,2.0,4.0,30,0.00,,,0.00,417.0,meteohub,2013-06-15 14:54:00,
2013-06-15 07:59:00,88.5,53.1,30.00,WSW,255,1.0,4.0,30,0.00,,,0.00,436.0,meteohub,2013-06-15 14:59:00,
2013-06-15 08:04:00,88.5,52.2,30.00,WNW,289,1.0,5.0,29,0.00,,,0.00,448.0,meteohub,2013-06-15 15:04:00,
2013-06-15 08:09:00,88.9,52.5,30.01,WNW,284,1.0,5.0,29,0.00,,,0.00,466.0,meteohub,2013-06-15 15:09:00,
2013-06-15 08:14:00,89.1,52.7,30.01,SSW,212,4.0,5.0,29,0.00,,,0.00,480.0,meteohub,2013-06-15 15:14:00,
2013-06-15 08:19:00,89.2,52.9,30.01,NW,326,2.0,4.0,29,0.00,,,0.00,494.0,meteohub,2013-06-15 15:19:00,
2013-06-15 08:24:00,89.2,52.9,30.01,NW,313,1.0,5.0,29,0.00,,,0.00,510.0,meteohub,2013-06-15 15:24:00,
2013-06-15 08:29:00,89.4,53.1,30.01,WNW,300,0.0,5.0,29,0.00,,,0.00,526.0,meteohub,2013-06-15 15:29:00,
2013-06-15 08:34:00,90.0,53.4,30.01,West,267,5.0,5.0,29,0.00,,,0.00,536.0,meteohub,2013-06-15 15:34:00,
2013-06-15 08:39:00,90.1,53.6,30.01,West,265,2.0,6.0,29,0.00,,,0.00,550.0,meteohub,2013-06-15 15:39:00,
2013-06-15 08:44:00,90.1,53.6,30.00,West,277,2.0,6.0,29,0.00,,,0.00,566.0,meteohub,2013-06-15 15:44:00,
2013-06-15 08:49:00,90.3,52.9,30.00,NW,323,4.0,6.0,28,0.00,,,0.00,582.0,meteohub,2013-06-15 15:49:00,
2013-06-15 08:54:00,90.7,53.1,30.00,NW,304,3.0,8.0,28,0.00,,,0.00,596.0,meteohub,2013-06-15 15:54:00,
2013-06-15 08:59:00,91.0,53.4,30.00,NNW,333,7.0,8.0,28,0.00,,,0.00,615.0,meteohub,2013-06-15 15:59:00,
2013-06-15 09:04:00,91.0,53.4,30.00,SE,130,0.0,8.0,28,0.00,,,0.00,631.0,meteohub,2013-06-15 16:04:00,
2013-06-15 09:10:00,91.0,53.4,30.00,West,275,2.0,7.0,28,0.00,,,0.00,643.0,meteohub,2013-06-15 16:10:00,
2013-06-15 09:15:00,91.6,52.9,30.00,WSW,247,2.0,7.0,27,0.00,,,0.00,661.0,meteohub,2013-06-15 16:15:00,
2013-06-15 09:20:00,92.1,53.4,29.99,WSW,254,4.0,8.0,27,0.00,,,0.00,677.0,meteohub,2013-06-15 16:20:00,
2013-06-15 09:25:00,91.9,53.2,29.99,West,270,3.0,8.0,27,0.00,,,0.00,691.0,meteohub,2013-06-15 16:25:00,
2013-06-15 09:30:00,91.9,53.2,29.99,WSW,246,4.0,9.0,27,0.00,,,0.00,707.0,meteohub,2013-06-15 16:30:00,
2013-06-15 09:35:00,91.9,53.2,29.99,West,279,3.0,9.0,27,0.00,,,0.00,719.0,meteohub,2013-06-15 16:35:00,
2013-06-15 09:40:00,92.1,53.4,29.99,West,277,6.0,9.0,27,0.00,,,0.00,728.0,meteohub,2013-06-15 16:40:00,
2013-06-15 09:45:00,92.3,52.5,29.99,NW,315,2.0,8.0,26,0.00,,,0.00,744.0,meteohub,2013-06-15 16:45:00,
2013-06-15 09:50:00,92.7,52.7,29.99,West,259,2.0,8.0,26,0.00,,,0.00,759.0,meteohub,2013-06-15 16:50:00,
2013-06-15 09:55:00,92.8,52.9,29.99,WNW,302,3.0,9.0,26,0.00,,,0.00,770.0,meteohub,2013-06-15 16:55:00,
2013-06-15 10:00:00,93.4,52.3,29.99,WSW,247,2.0,9.0,25,0.00,,,0.00,780.0,meteohub,2013-06-15 17:00:00,
2013-06-15 10:05:00,93.6,52.5,29.99,WSW,252,2.0,9.0,25,0.00,,,0.00,791.0,meteohub,2013-06-15 17:05:00,
2013-06-15 10:10:00,93.7,51.4,29.99,East,96,2.0,7.0,24,0.00,,,0.00,802.0,meteohub,2013-06-15 17:10:00,
2013-06-15 10:15:00,93.7,52.5,29.99,WSW,250,5.0,7.0,25,0.00,,,0.00,812.0,meteohub,2013-06-15 17:15:00,
2013-06-15 10:20:00,94.1,51.8,29.99,West,266,3.0,8.0,24,0.00,,,0.00,824.0,meteohub,2013-06-15 17:20:00,
2013-06-15 10:25:00,94.6,52.2,29.99,WNW,303,6.0,10.0,24,0.00,,,0.00,837.0,meteohub,2013-06-15 17:25:00,
2013-06-15 10:30:00,94.3,52.0,29.99,WSW,242,1.0,10.0,24,0.00,,,0.00,846.0,meteohub,2013-06-15 17:30:00,
2013-06-15 10:35:00,94.8,51.3,29.99,West,264,3.0,10.0,23,0.00,,,0.00,854.0,meteohub,2013-06-15 17:35:00,
2013-06-15 10:40:00,94.8,51.3,29.99,SW,236,2.0,8.0,23,0.00,,,0.00,863.0,meteohub,2013-06-15 17:40:00,
2013-06-15 10:45:00,95.4,50.5,29.99,WNW,285,4.0,8.0,22,0.00,,,0.00,874.0,meteohub,2013-06-15 17:45:00,
2013-06-15 10:50:00,95.5,50.7,29.99,West,267,1.0,8.0,22,0.00,,,0.00,881.0,meteohub,2013-06-15 17:50:00,
2013-06-15 10:55:00,95.7,50.7,29.99,NNW,332,2.0,7.0,22,0.00,,,0.00,889.0,meteohub,2013-06-15 17:55:00,
2013-06-15 11:00:00,96.3,51.3,29.99,WSW,254,6.0,10.0,22,0.00,,,0.00,893.0,meteohub,2013-06-15 18:00:00,
2013-06-15 11:05:00,96.4,50.2,29.98,West,262,8.0,10.0,21,0.00,,,0.00,905.0,meteohub,2013-06-15 18:05:00,
2013-06-15 11:10:00,96.6,48.9,29.98,NW,315,5.0,10.0,20,0.00,,,0.00,916.0,meteohub,2013-06-15 18:10:00,
2013-06-15 11:15:00,97.3,49.6,29.98,NW,324,6.0,9.0,20,0.00,,,0.00,921.0,meteohub,2013-06-15 18:15:00,
2013-06-15 11:20:00,97.5,49.6,29.98,West,275,3.0,8.0,20,0.00,,,0.00,925.0,meteohub,2013-06-15 18:20:00,
2013-06-15 11:25:00,97.9,50.0,29.98,West,268,2.0,8.0,20,0.00,,,0.00,935.0,meteohub,2013-06-15 18:25:00,
2013-06-15 11:30:00,97.9,50.0,29.98,WNW,284,3.0,9.0,20,0.00,,,0.00,951.0,meteohub,2013-06-15 18:30:00,
2013-06-15 11:35:00,98.2,50.4,29.97,WNW,300,4.0,9.0,20,0.00,,,0.00,972.0,meteohub,2013-06-15 18:35:00,
2013-06-15 11:40:00,98.2,50.4,29.97,NNW,337,2.0,8.0,20,0.00,,,0.00,970.0,meteohub,2013-06-15 18:40:00,
2013-06-15 11:45:00,97.9,50.0,29.97,SSW,199,3.0,7.0,20,0.00,,,0.00,309.0,meteohub,2013-06-15 18:45:00,
2013-06-15 11:50:00,97.9,51.3,29.97,SW,224,2.0,8.0,21,0.00,,,0.00,1065.0,meteohub,2013-06-15 18:50:00,
2013-06-15 11:56:00,98.2,50.4,29.97,West,271,2.0,8.0,20,0.00,,,0.00,1097.0,meteohub,2013-06-15 18:56:00,
2013-06-15 12:01:00,98.4,50.4,29.97,NW,319,3.0,11.0,20,0.00,,,0.00,977.0,meteohub,2013-06-15 19:01:00,
2013-06-15 12:06:00,98.4,50.4,29.96,SW,232,8.0,11.0,20,0.00,,,0.00,640.0,meteohub,2013-06-15 19:06:00,
2013-06-15 12:11:00,98.1,51.4,29.96,NNW,327,2.0,8.0,21,0.00,,,0.00,1046.0,meteohub,2013-06-15 19:11:00,
2013-06-15 12:16:00,99.0,50.9,29.96,NW,314,4.0,9.0,20,0.00,,,0.00,1007.0,meteohub,2013-06-15 19:16:00,
2013-06-15 12:21:00,99.3,51.3,29.96,West,262,1.0,9.0,20,0.00,,,0.00,1032.0,meteohub,2013-06-15 19:21:00,
2013-06-15 12:26:00,99.7,51.4,29.96,SW,233,3.0,9.0,20,0.00,,,0.00,619.0,meteohub,2013-06-15 19:26:00,
2013-06-15 12:31:00,99.1,51.1,29.95,NW,326,3.0,9.0,20,0.00,,,0.00,431.0,meteohub,2013-06-15 19:31:00,
2013-06-15 12:36:00,99.0,50.9,29.95,NNW,340,1.0,11.0,20,0.00,,,0.00,919.0,meteohub,2013-06-15 19:36:00,
2013-06-15 12:41:00,99.7,50.0,29.94,NW,317,4.0,12.0,19,0.00,,,0.00,1067.0,meteohub,2013-06-15 19:41:00,
2013-06-15 12:46:00,99.9,50.2,29.94,WNW,296,4.0,12.0,19,0.00,,,0.00,1093.0,meteohub,2013-06-15 19:46:00,
2013-06-15 12:51:00,100.0,50.4,29.94,West,261,4.0,12.0,19,0.00,,,0.00,1078.0,meteohub,2013-06-15 19:51:00,
2013-06-15 12:56:00,99.0,50.9,29.94,NW,315,4.0,10.0,20,0.00,,,0.00,237.0,meteohub,2013-06-15 19:56:00,
2013-06-15 13:01:00,98.1,51.4,29.94,West,265,7.0,10.0,21,0.00,,,0.00,287.0,meteohub,2013-06-15 20:01:00,
2013-06-15 13:06:00,97.3,55.6,29.94,West,261,4.0,10.0,25,0.00,,,0.00,207.0,meteohub,2013-06-15 20:06:00,
2013-06-15 13:11:00,96.3,54.7,29.94,WNW,300,3.0,10.0,25,0.00,,,0.00,174.0,meteohub,2013-06-15 20:11:00,
2013-06-15 13:16:00,95.7,54.3,29.94,WSW,251,2.0,10.0,25,0.00,,,0.00,144.0,meteohub,2013-06-15 20:16:00,
2013-06-15 13:21:00,95.5,55.2,29.95,WSW,244,3.0,9.0,26,0.00,,,0.00,153.0,meteohub,2013-06-15 20:21:00,
2013-06-15 13:26:00,94.5,62.6,29.96,South,188,8.0,8.0,35,0.00,,,0.00,179.0,meteohub,2013-06-15 20:26:00,
2013-06-15 13:31:00,89.6,66.0,29.96,SSW,197,7.0,12.0,46,0.01,,,0.01,752.0,meteohub,2013-06-15 20:31:00,
2013-06-15 13:36:00,86.7,62.8,29.95,SE,124,5.0,18.0,45,0.01,,,0.01,1109.0,meteohub,2013-06-15 20:36:00,
2013-06-15 13:41:00,86.4,61.9,29.94,ESE,115,4.0,18.0,44,0.01,,,0.01,1118.0,meteohub,2013-06-15 20:41:00,
2013-06-15 13:46:00,87.4,62.2,29.94,NE,42,3.0,18.0,43,0.01,,,0.01,369.0,meteohub,2013-06-15 20:46:00,
2013-06-15 13:51:00,88.7,59.0,29.94,ESE,109,8.0,11.0,37,0.01,,,0.01,1081.0,meteohub,2013-06-15 20:51:00,
2013-06-15 13:56:00,90.1,59.5,29.94,East,88,3.0,11.0,36,0.01,,,0.01,1065.0,meteohub,2013-06-15 20:56:00,
2013-06-15 14:01:00,91.0,59.5,29.94,East,83,5.0,11.0,35,0.01,,,0.01,288.0,meteohub,2013-06-15 21:01:00,
2013-06-15 14:06:00,90.9,58.6,29.93,East,100,5.0,11.0,34,0.01,,,0.01,193.0,meteohub,2013-06-15 21:06:00,
2013-06-15 14:11:00,90.0,61.7,29.93,ESE,105,3.0,11.0,39,0.01,,,0.01,141.0,meteohub,2013-06-15 21:11:00,
2013-06-15 14:16:00,88.9,62.8,29.93,East,96,5.0,9.0,42,0.02,,,0.02,132.0,meteohub,2013-06-15 21:16:00,
2013-06-15 14:22:00,88.2,63.5,29.94,SE,138,4.0,9.0,44,0.02,,,0.02,120.0,meteohub,2013-06-15 21:22:00,
2013-06-15 14:27:00,86.4,64.4,29.94,SE,140,4.0,9.0,48,0.02,,,0.02,105.0,meteohub,2013-06-15 21:27:00,
2013-06-15 14:32:00,84.4,64.8,29.95,SE,132,3.0,9.0,52,0.01,,,0.02,107.0,meteohub,2013-06-15 21:32:00,
2013-06-15 14:37:00,81.7,66.0,29.95,ESE,109,4.0,9.0,59,0.03,,,0.04,128.0,meteohub,2013-06-15 21:37:00,
2013-06-15 14:42:00,78.3,60.3,29.97,SW,221,11.0,11.0,54,0.09,,,0.10,202.0,meteohub,2013-06-15 21:42:00,
2013-06-15 14:47:00,76.8,61.0,29.91,NE,36,7.0,24.0,58,0.37,,,0.38,956.0,meteohub,2013-06-15 21:47:00,
2013-06-15 14:52:00,77.5,63.0,29.91,NNW,346,4.0,25.0,61,0.41,,,0.42,842.0,meteohub,2013-06-15 21:52:00,
2013-06-15 14:57:00,78.6,64.0,29.91,NNE,28,4.0,25.0,61,0.41,,,0.42,946.0,meteohub,2013-06-15 21:57:00,
2013-06-15 15:02:00,80.6,66.9,29.91,East,96,3.0,17.0,63,0.41,,,0.42,907.0,meteohub,2013-06-15 22:02:00,
2013-06-15 15:07:00,82.8,66.0,29.91,East,101,2.0,10.0,57,0.41,,,0.42,633.0,meteohub,2013-06-15 22:07:00,
2013-06-15 15:12:00,84.0,65.1,29.90,East,79,5.0,11.0,53,0.41,,,0.42,754.0,meteohub,2013-06-15 22:12:00,
2013-06-15 15:17:00,85.1,66.0,29.90,East,93,2.0,11.0,53,0.40,,,0.42,840.0,meteohub,2013-06-15 22:17:00,
2013-06-15 15:22:00,86.5,65.1,29.90,SE,124,2.0,9.0,49,0.40,,,0.42,796.0,meteohub,2013-06-15 22:22:00,
2013-06-15 15:27:00,88.3,61.7,29.90,ESE,116,2.0,8.0,41,0.40,,,0.42,752.0,meteohub,2013-06-15 22:27:00,
2013-06-15 15:32:00,89.8,59.2,29.90,SE,136,4.0,8.0,36,0.40,,,0.42,742.0,meteohub,2013-06-15 22:32:00,
2013-06-15 15:37:00,90.9,61.7,29.90,SE,134,2.0,10.0,38,0.38,,,0.42,710.0,meteohub,2013-06-15 22:37:00,
2013-06-15 15:42:00,91.8,61.0,29.89,ESE,109,4.0,10.0,36,0.24,,,0.42,703.0,meteohub,2013-06-15 22:42:00,
2013-06-15 15:47:00,92.5,60.1,29.89,ESE,121,1.0,10.0,34,0.01,,,0.42,686.0,meteohub,2013-06-15 22:47:00,
2013-06-15 15:52:00,93.6,61.7,29.89,ESE,121,1.0,8.0,35,0.00,,,0.42,670.0,meteohub,2013-06-15 22:52:00,
2013-06-15 15:57:00,94.3,58.1,29.89,East,86,1.0,8.0,30,0.00,,,0.42,661.0,meteohub,2013-06-15 22:57:00,
2013-06-15 16:02:00,95.0,59.5,29.89,SE,128,2.0,5.0,31,0.00,,,0.42,642.0,meteohub,2013-06-15 23:02:00,
2013-06-15 16:07:00,95.7,57.4,29.89,SE,130,1.0,5.0,28,0.00,,,0.42,624.0,meteohub,2013-06-15 23:07:00,
2013-06-15 16:12:00,96.3,56.8,29.89,SE,130,2.0,4.0,27,0.00,,,0.42,615.0,meteohub,2013-06-15 23:12:00,
2013-06-15 16:17:00,96.6,57.2,29.89,SE,129,0.0,4.0,27,0.00,,,0.42,603.0,meteohub,2013-06-15 23:17:00,
2013-06-15 16:22:00,97.2,57.6,29.89,SE,139,2.0,4.0,27,0.00,,,0.42,585.0,meteohub,2013-06-15 23:22:00,
2013-06-15 16:27:00,97.3,53.4,29.88,SSW,201,1.0,4.0,23,0.00,,,0.42,568.0,meteohub,2013-06-15 23:27:00,
2013-06-15 16:32:00,97.5,53.4,29.88,SSE,155,2.0,4.0,23,0.00,,,0.42,548.0,meteohub,2013-06-15 23:32:00,
2013-06-15 16:37:00,97.7,57.0,29.88,SSE,157,1.0,4.0,26,0.00,,,0.42,520.0,meteohub,2013-06-15 23:37:00,
2013-06-15 16:42:00,98.1,56.3,29.88,SSE,157,1.0,4.0,25,0.00,,,0.42,513.0,meteohub,2013-06-15 23:42:00,
2013-06-15 16:47:00,98.4,53.1,29.88,SSW,197,4.0,4.0,22,0.00,,,0.42,503.0,meteohub,2013-06-15 23:47:00,
2013-06-15 16:52:00,98.2,52.9,29.88,WSW,251,0.0,7.0,22,0.00,,,0.42,490.0,meteohub,2013-06-15 23:52:00,
2013-06-15 16:57:00,98.4,57.6,29.88,SSW,207,2.0,7.0,26,0.00,,,0.42,473.0,meteohub,2013-06-15 23:57:00,
2013-06-15 17:02:00,98.4,55.4,29.88,SSW,210,2.0,7.0,24,0.00,,,0.42,455.0,meteohub,2013-06-16 00:02:00,
2013-06-15 17:07:00,98.4,54.3,29.88,SW,219,2.0,6.0,23,0.00,,,0.42,450.0,meteohub,2013-06-16 00:07:00,
2013-06-15 17:12:00,98.2,55.2,29.88,WSW,240,3.0,7.0,24,0.00,,,0.42,127.0,meteohub,2013-06-16 00:12:00,
2013-06-15 17:17:00,97.9,56.1,29.88,SW,227,3.0,7.0,25,0.00,,,0.42,415.0,meteohub,2013-06-16 00:17:00,
2013-06-15 17:22:00,97.3,56.7,29.88,SSW,208,3.0,7.0,26,0.00,,,0.42,116.0,meteohub,2013-06-16 00:22:00,
2013-06-15 17:27:00,96.6,57.2,29.88,South,189,2.0,7.0,27,0.00,,,0.42,137.0,meteohub,2013-06-16 00:27:00,
2013-06-15 17:32:00,96.4,52.5,29.88,SW,222,4.0,7.0,23,0.00,,,0.42,121.0,meteohub,2013-06-16 00:32:00,
2013-06-15 17:37:00,96.3,53.6,29.88,WSW,245,2.0,6.0,24,0.00,,,0.42,109.0,meteohub,2013-06-16 00:37:00,
2013-06-15 17:42:00,96.1,53.4,29.88,WSW,240,2.0,6.0,24,0.00,,,0.42,107.0,meteohub,2013-06-16 00:42:00,
2013-06-15 17:47:00,95.7,54.3,29.88,WSW,240,2.0,6.0,25,0.00,,,0.42,100.0,meteohub,2013-06-16 00:47:00,
2013-06-15 17:52:00,95.5,56.3,29.88,WSW,240,0.0,5.0,27,0.00,,,0.42,84.0,meteohub,2013-06-16 00:52:00,
2013-06-15 17:57:00,95.4,55.0,29.88,WSW,240,3.0,4.0,26,0.00,,,0.42,90.0,meteohub,2013-06-16 00:57:00,
2013-06-15 18:02:00,94.6,61.9,29.88,South,184,1.0,3.0,34,0.01,,,0.43,90.0,meteohub,2013-06-16 01:02:00,
2013-06-15 18:08:00,92.8,66.4,29.88,South,184,0.0,3.0,42,0.02,,,0.44,93.0,meteohub,2013-06-16 01:08:00,
2013-06-15 18:13:00,90.9,63.1,29.89,SW,225,4.0,4.0,40,0.02,,,0.44,214.0,meteohub,2013-06-16 01:13:00,
2013-06-15 18:18:00,90.7,61.5,29.89,ESE,121,3.0,8.0,38,0.02,,,0.44,179.0,meteohub,2013-06-16 01:18:00,
2013-06-15 18:23:00,90.7,61.5,29.89,South,191,1.0,8.0,38,0.02,,,0.44,156.0,meteohub,2013-06-16 01:23:00,
2013-06-15 18:28:00,90.7,60.1,29.89,South,191,1.0,8.0,36,0.02,,,0.44,69.0,meteohub,2013-06-16 01:28:00,
2013-06-15 18:33:00,90.5,59.9,29.89,South,191,0.0,5.0,36,0.02,,,0.44,51.0,meteohub,2013-06-16 01:33:00,
2013-06-15 18:38:00,90.3,59.0,29.90,South,191,1.0,2.0,35,0.02,,,0.44,69.0,meteohub,2013-06-16 01:38:00,
2013-06-15 18:43:00,90.3,58.1,29.90,South,183,2.0,2.0,34,0.02,,,0.44,47.0,meteohub,2013-06-16 01:43:00,
2013-06-15 18:48:00,90.3,58.1,29.90,SSE,149,1.0,3.0,34,0.02,,,0.44,39.0,meteohub,2013-06-16 01:48:00,
2013-06-15 18:53:00,90.3,56.5,29.90,SSE,148,2.0,3.0,32,0.02,,,0.44,35.0,meteohub,2013-06-16 01:53:00,
2013-06-15 18:58:00,90.3,59.0,29.90,SSE,148,0.0,3.0,35,0.02,,,0.44,30.0,meteohub,2013-06-16 01:58:00,
2013-06-15 19:03:00,90.1,58.8,29.91,SSE,148,0.0,3.0,35,0.00,,,0.44,26.0,meteohub,2013-06-16 02:03:00,
2013-06-15 19:08:00,89.8,58.5,29.90,ESE,111,2.0,3.0,35,0.00,,,0.44,21.0,meteohub,2013-06-16 02:08:00,
2013-06-15 19:13:00,89.4,54.9,29.91,ESE,107,5.0,6.0,31,0.00,,,0.44,18.0,meteohub,2013-06-16 02:13:00,
2013-06-15 19:18:00,89.2,55.6,29.91,ENE,78,2.0,8.0,32,0.00,,,0.44,12.0,meteohub,2013-06-16 02:18:00,
2013-06-15 19:23:00,89.1,56.3,29.91,East,90,5.0,9.0,33,0.00,,,0.44,9.0,meteohub,2013-06-16 02:23:00,
2013-06-15 19:28:00,88.5,54.9,29.91,East,92,5.0,9.0,32,0.00,,,0.44,7.0,meteohub,2013-06-16 02:28:00,
2013-06-15 19:33:00,88.3,55.6,29.91,ENE,76,3.0,8.0,33,0.00,,,0.44,5.0,meteohub,2013-06-16 02:33:00,
2013-06-15 19:38:00,87.8,55.9,29.91,ENE,75,0.0,8.0,34,0.00,,,0.44,0.0,meteohub,2013-06-16 02:38:00,
2013-06-15 19:43:00,87.4,55.6,29.91,ENE,78,2.0,7.0,34,0.00,,,0.44,0.0,meteohub,2013-06-16 02:43:00,
2013-06-15 19:48:00,86.9,55.9,29.91,ENE,74,2.0,7.0,35,0.00,,,0.44,0.0,meteohub,2013-06-16 02:48:00,
2013-06-15 19:53:00,86.5,55.6,29.91,East,81,2.0,5.0,35,0.00,,,0.44,0.0,meteohub,2013-06-16 02:53:00,
2013-06-15 19:58:00,86.2,56.8,29.92,East,80,0.0,5.0,37,0.00,,,0.44,0.0,meteohub,2013-06-16 02:58:00,
2013-06-15 20:03:00,85.6,57.2,29.92,East,85,1.0,5.0,38,0.00,,,0.44,0.0,meteohub,2013-06-16 03:03:00,
2013-06-15 20:09:00,84.9,57.9,29.92,South,183,2.0,5.0,40,0.00,,,0.44,0.0,meteohub,2013-06-16 03:09:00,
2013-06-15 20:14:00,84.6,55.4,29.93,South,185,1.0,3.0,37,0.00,,,0.44,0.0,meteohub,2013-06-16 03:14:00,
2013-06-15 20:19:00,84.6,54.7,29.93,SW,231,7.0,7.0,36,0.00,,,0.44,0.0,meteohub,2013-06-16 03:19:00,
2013-06-15 20:24:00,85.3,54.5,29.93,ESE,108,1.0,11.0,35,0.00,,,0.44,0.0,meteohub,2013-06-16 03:24:00,
2013-06-15 20:29:00,85.3,55.2,29.93,East,92,1.0,11.0,36,0.00,,,0.44,0.0,meteohub,2013-06-16 03:29:00,
2013-06-15 20:34:00,84.9,55.0,29.94,East,101,2.0,11.0,36,0.00,,,0.44,0.0,meteohub,2013-06-16 03:34:00,
2013-06-15 20:39:00,84.9,55.0,29.94,ESE,114,2.0,5.0,36,0.00,,,0.44,0.0,meteohub,2013-06-16 03:39:00,
2013-06-15 20:44:00,84.9,57.9,29.94,ENE,67,2.0,5.0,40,0.00,,,0.44,0.0,meteohub,2013-06-16 03:44:00,
2013-06-15 20:49:00,84.2,56.5,29.94,ENE,67,1.0,5.0,39,0.00,,,0.44,0.0,meteohub,2013-06-16 03:49:00,
2013-06-15 20:54:00,83.8,56.3,29.94,ENE,67,1.0,5.0,39,0.00,,,0.44,0.0,meteohub,2013-06-16 03:54:00,
2013-06-15 20:59:00,83.1,60.8,29.95,ENE,67,0.0,3.0,47,0.00,,,0.44,0.0,meteohub,2013-06-16 03:59:00,
2013-06-15 21:01:00,82.9,59.4,29.94,ENE,67,0.0,2.0,45,0.00,,,0.44,0.0,meteohub,2013-06-16 04:01:00,
2013-06-15 21:02:00,82.8,57.9,29.94,ENE,67,0.0,2.0,43,0.00,,,0.44,0.0,meteohub,2013-06-16 04:02:00,
2013-06-15 21:07:00,82.2,61.7,29.95,ENE,67,1.0,2.0,50,0.00,,,0.44,0.0,meteohub,2013-06-16 04:07:00,
2013-06-15 21:12:00,81.3,58.6,29.95,ENE,67,1.0,2.0,46,0.00,,,0.44,0.0,meteohub,2013-06-16 04:12:00,
2013-06-15 21:17:00,81.0,60.6,29.96,ENE,67,0.0,2.0,50,0.00,,,0.44,0.0,meteohub,2013-06-16 04:17:00,
2013-06-15 21:22:00,80.2,63.1,29.96,ENE,67,0.0,2.0,56,0.00,,,0.44,0.0,meteohub,2013-06-16 04:22:00,
2013-06-15 21:27:00,79.5,63.9,29.96,ENE,67,2.0,2.0,59,0.00,,,0.44,0.0,meteohub,2013-06-16 04:27:00,
2013-06-15 21:32:00,79.0,63.0,29.96,ENE,67,0.0,2.0,58,0.00,,,0.44,0.0,meteohub,2013-06-16 04:32:00,
2013-06-15 21:37:00,78.6,62.1,29.96,ENE,67,1.0,2.0,57,0.00,,,0.44,0.0,meteohub,2013-06-16 04:37:00,
2013-06-15 21:42:00,78.4,63.9,29.97,ENE,67,0.0,2.0,61,0.00,,,0.44,0.0,meteohub,2013-06-16 04:42:00,
2013-06-15 21:47:00,78.1,64.0,29.97,ENE,67,1.0,2.0,62,0.00,,,0.44,0.0,meteohub,2013-06-16 04:47:00,
2013-06-15 21:52:00,78.1,60.6,29.97,ENE,67,0.0,3.0,55,0.00,,,0.44,0.0,meteohub,2013-06-16 04:52:00,
2013-06-15 21:57:00,78.4,61.9,29.97,ENE,67,0.0,3.0,57,0.00,,,0.44,0.0,meteohub,2013-06-16 04:57:00,
2013-06-15 22:02:00,78.6,61.5,29.97,ENE,67,1.0,3.0,56,0.00,,,0.44,0.0,meteohub,2013-06-16 05:02:00,
2013-06-15 22:07:00,78.4,62.4,29.97,ENE,67,0.0,2.0,58,0.00,,,0.44,0.0,meteohub,2013-06-16 05:07:00,
2013-06-15 22:12:00,78.1,62.6,29.97,ENE,67,0.0,2.0,59,0.00,,,0.44,0.0,meteohub,2013-06-16 05:12:00,
2013-06-15 22:17:00,77.7,59.2,29.97,ENE,67,1.0,2.0,53,0.00,,,0.44,0.0,meteohub,2013-06-16 05:17:00,
2013-06-15 22:22:00,77.9,62.4,29.97,ENE,67,0.0,2.0,59,0.00,,,0.44,0.0,meteohub,2013-06-16 05:22:00,
2013-06-15 22:27:00,77.5,63.5,29.98,ENE,67,0.0,2.0,62,0.00,,,0.44,0.0,meteohub,2013-06-16 05:27:00,
2013-06-15 22:32:00,77.2,59.7,29.98,ENE,67,0.0,2.0,55,0.00,,,0.44,0.0,meteohub,2013-06-16 05:32:00,
2013-06-15 22:37:00,77.0,60.6,29.98,ENE,67,1.0,2.0,57,0.00,,,0.44,0.0,meteohub,2013-06-16 05:37:00,
2013-06-15 22:42:00,76.8,62.4,29.98,ENE,67,1.0,2.0,61,0.00,,,0.44,0.0,meteohub,2013-06-16 05:42:00,
2013-06-15 22:47:00,76.5,62.4,29.98,ENE,67,0.0,2.0,62,0.00,,,0.44,0.0,meteohub,2013-06-16 05:47:00,
2013-06-15 22:53:00,76.5,60.1,29.98,ENE,63,0.0,2.0,57,0.00,,,0.44,0.0,meteohub,2013-06-16 05:53:00,
2013-06-15 22:58:00,76.5,60.6,29.98,ENE,63,1.0,4.0,58,0.00,,,0.44,0.0,meteohub,2013-06-16 05:58:00,
2013-06-15 23:03:00,76.6,59.7,29.98,ENE,58,1.0,4.0,56,0.00,,,0.44,0.0,meteohub,2013-06-16 06:03:00,
2013-06-15 23:08:00,76.8,59.9,29.98,ENE,58,0.0,4.0,56,0.00,,,0.44,0.0,meteohub,2013-06-16 06:08:00,
2013-06-15 23:13:00,76.8,60.4,29.98,ENE,58,0.0,4.0,57,0.00,,,0.44,0.0,meteohub,2013-06-16 06:13:00,
2013-06-15 23:18:00,76.6,60.8,29.98,ENE,58,1.0,4.0,58,0.00,,,0.44,0.0,meteohub,2013-06-16 06:18:00,
2013-06-15 23:23:00,76.1,59.7,29.98,ENE,58,1.0,2.0,57,0.00,,,0.44,0.0,meteohub,2013-06-16 06:23:00,
2013-06-15 23:28:00,75.9,61.0,29.98,ENE,58,1.0,2.0,60,0.00,,,0.44,0.0,meteohub,2013-06-16 06:28:00,
2013-06-15 23:33:00,75.7,60.4,29.98,ENE,58,1.0,2.0,59,0.00,,,0.44,0.0,meteohub,2013-06-16 06:33:00,
2013-06-15 23:38:00,75.7,61.3,29.98,ENE,58,0.0,2.0,61,0.00,,,0.44,0.0,meteohub,2013-06-16 06:38:00,
2013-06-15 23:43:00,75.6,62.1,29.98,ENE,58,0.0,2.0,63,0.00,,,0.44,0.0,meteohub,2013-06-16 06:43:00,
2013-06-15 23:48:00,75.6,61.2,29.99,ENE,58,0.0,2.0,61,0.00,,,0.44,0.0,meteohub,2013-06-16 06:48:00,
2013-06-15 23:53:00,75.2,63.1,29.98,ENE,58,0.0,2.0,66,0.00,,,0.44,0.0,meteohub,2013-06-16 06:53:00,
2013-06-15 23:58:00,74.8,61.9,29.98,ENE,58,1.0,2.0,64,0.00,,,0.44,0.0,meteohub,2013-06-16 06:58:00,